createdAt,value
2022-11-29T01:23:56.292Z,8.40
2022-11-29T01:26:25.314Z,8.40
2022-11-29T01:28:53.819Z,8.40
2022-11-29T01:31:26.767Z,8.40
2022-11-29T01:33:55.045Z,8.40
2022-11-29T01:36:22.061Z,8.40
2022-11-29T01:38:48.762Z,8.40
2022-11-29T01:41:19.247Z,8.40
2022-11-29T01:44:01.364Z,8.30
2022-11-29T01:46:31.039Z,8.30
2022-11-29T01:49:03.415Z,8.20
2022-11-29T01:51:30.951Z,8.20
2022-11-29T01:53:58.569Z,8.20
2022-11-29T01:56:25.830Z,8.30
2022-11-29T01:58:52.482Z,8.30
2022-11-29T02:01:19.333Z,8.30
2022-11-29T02:03:46.032Z,8.30
2022-11-29T02:06:13.477Z,8.30
2022-11-29T02:08:42.721Z,8.20
2022-11-29T02:11:34.545Z,8.20
2022-11-29T02:14:16.133Z,8.30
2022-11-29T02:17:32.027Z,8.20
2022-11-29T02:20:25.641Z,8.20
2022-11-29T02:22:58.031Z,8.30
2022-11-29T02:25:40.836Z,8.20
2022-11-29T02:28:22.596Z,8.20
2022-11-29T02:31:01.500Z,8.20
2022-11-29T02:33:52.687Z,8.20
2022-11-29T02:36:34.173Z,8.20
2022-11-29T02:39:38.487Z,8.30
2022-11-29T02:42:32.470Z,8.30
2022-11-29T02:45:33.691Z,8.30
2022-11-29T02:48:44.823Z,8.20
2022-11-29T02:51:22.198Z,8.30
2022-11-29T02:54:16.601Z,8.20
2022-11-29T02:57:13.565Z,8.30
2022-11-29T02:59:52.775Z,8.20
2022-11-29T03:02:35.685Z,8.20
2022-11-29T03:05:25.315Z,8.20
2022-11-29T03:08:10.833Z,8.20
2022-11-29T03:10:50.837Z,8.20
2022-11-29T03:13:27.493Z,8.20
2022-11-29T03:16:04.638Z,8.20
2022-11-29T03:18:57.460Z,8.20
2022-11-29T03:21:41.483Z,8.20
2022-11-29T03:24:28.862Z,8.20
2022-11-29T03:27:02.067Z,8.20
2022-11-29T03:29:55.078Z,8.20
2022-11-29T03:32:58.216Z,8.20
2022-11-29T03:35:48.945Z,8.20
2022-11-29T03:38:28.003Z,8.10
2022-11-29T03:41:23.263Z,8.20
2022-11-29T03:44:15.097Z,8.20
2022-11-29T03:46:54.418Z,8.20
2022-11-29T03:49:28.897Z,8.20
2022-11-29T03:52:14.286Z,8.20
2022-11-29T03:54:59.617Z,8.10
2022-11-29T03:57:40.837Z,8.10
2022-11-29T04:00:11.011Z,8.10
2022-11-29T04:03:17.557Z,8.10
2022-11-29T04:05:59.483Z,8.10
2022-11-29T04:08:49.657Z,8.10
2022-11-29T04:11:16.267Z,8.10
2022-11-29T04:14:22.016Z,8.00
2022-11-29T04:17:20.376Z,8.00
2022-11-29T04:19:46.933Z,8.00
2022-11-29T04:22:25.322Z,8.00
2022-11-29T04:25:25.707Z,8.00
2022-11-29T04:28:26.794Z,8.00
2022-11-29T04:31:18.691Z,8.00
2022-11-29T04:34:11.865Z,7.90
2022-11-29T04:36:56.661Z,7.90
2022-11-29T04:39:23.178Z,7.90
2022-11-29T04:42:20.453Z,7.90
2022-11-29T04:45:22.608Z,7.90
2022-11-29T04:48:20.525Z,8.00
2022-11-29T04:51:42.508Z,8.00
2022-11-29T04:54:09.058Z,7.90
2022-11-29T04:56:54.159Z,7.90
2022-11-29T04:59:59.750Z,7.90
2022-11-29T05:02:48.569Z,7.90
2022-11-29T05:05:30.409Z,7.90
2022-11-29T05:08:30.033Z,7.90
2022-11-29T05:11:11.297Z,7.90
2022-11-29T05:13:48.223Z,7.90
2022-11-29T05:16:21.013Z,7.90
2022-11-29T05:19:08.891Z,7.90
2022-11-29T05:22:00.970Z,7.90
2022-11-29T05:24:58.374Z,7.90
2022-11-29T05:27:24.961Z,8.00
2022-11-29T05:30:04.551Z,7.90
2022-11-29T05:32:50.089Z,8.00
2022-11-29T05:35:49.026Z,8.00
2022-11-29T05:38:34.139Z,8.00
2022-11-29T05:41:20.091Z,8.00
2022-11-29T05:44:07.425Z,8.00
2022-11-29T05:46:57.236Z,8.00
2022-11-29T05:49:45.772Z,8.00
2022-11-29T05:52:22.569Z,8.00
2022-11-29T05:55:13.827Z,7.90
2022-11-29T05:57:58.907Z,8.00
2022-11-29T06:00:32.008Z,8.00
2022-11-29T06:03:07.406Z,8.00
2022-11-29T06:05:48.665Z,8.00
2022-11-29T06:08:41.970Z,8.00
2022-11-29T06:11:27.966Z,8.00
2022-11-29T06:14:08.152Z,7.90
2022-11-29T06:17:01.888Z,7.90
2022-11-29T06:19:45.650Z,7.90
2022-11-29T06:22:20.728Z,7.90
2022-11-29T06:24:53.375Z,8.00
2022-11-29T06:27:50.118Z,7.90
2022-11-29T06:30:24.619Z,7.90
2022-11-29T06:33:29.040Z,7.90
2022-11-29T06:36:13.718Z,8.00
2022-11-29T06:38:41.213Z,7.90
2022-11-29T06:41:18.562Z,7.90
2022-11-29T06:43:45.953Z,8.00
2022-11-29T06:46:37.153Z,7.90
2022-11-29T06:49:11.671Z,7.90
2022-11-29T06:51:48.273Z,7.90
2022-11-29T06:54:40.610Z,7.80
2022-11-29T06:57:18.150Z,7.90
2022-11-29T07:00:03.885Z,7.80
2022-11-29T07:02:51.044Z,7.90
2022-11-29T07:05:25.533Z,7.80
2022-11-29T07:07:56.186Z,7.90
2022-11-29T07:10:24.141Z,7.80
2022-11-29T07:12:51.695Z,7.80
2022-11-29T07:15:21.441Z,7.80
2022-11-29T07:18:09.391Z,7.80
2022-11-29T07:20:48.070Z,7.80
2022-11-29T07:23:26.669Z,7.80
2022-11-29T07:26:19.007Z,7.80
2022-11-29T07:29:21.153Z,7.70
2022-11-29T07:31:56.418Z,7.80
2022-11-29T07:34:47.508Z,7.70
2022-11-29T07:37:29.297Z,7.80
2022-11-29T07:40:03.322Z,7.90
2022-11-29T07:43:05.775Z,7.90
2022-11-29T07:45:36.181Z,7.90
2022-11-29T07:48:03.419Z,7.90
2022-11-29T07:50:30.743Z,7.90
2022-11-29T07:52:57.767Z,7.80
2022-11-29T07:55:26.350Z,7.90
2022-11-29T07:57:53.617Z,7.80
2022-11-29T08:00:21.458Z,7.80
2022-11-29T08:02:49.432Z,7.80
2022-11-29T08:05:16.177Z,7.70
2022-11-29T08:07:43.008Z,7.80
2022-11-29T08:10:13.015Z,7.80
2022-11-29T08:12:50.063Z,7.80
2022-11-29T08:15:18.243Z,7.80
2022-11-29T08:17:44.990Z,7.80
2022-11-29T08:20:13.189Z,7.80
2022-11-29T08:22:40.258Z,7.80
2022-11-29T08:25:08.041Z,7.80
2022-11-29T08:27:36.141Z,7.80
2022-11-29T08:30:03.718Z,7.80
2022-11-29T08:32:30.360Z,7.80
2022-11-29T08:34:57.105Z,7.80
2022-11-29T08:37:23.870Z,7.80
2022-11-29T08:39:50.504Z,7.80
2022-11-29T08:42:17.299Z,7.90
2022-11-29T08:44:44.329Z,7.90
2022-11-29T08:47:30.215Z,7.80
2022-11-29T08:50:02.865Z,7.80
2022-11-29T08:52:55.116Z,7.80
2022-11-29T08:55:24.462Z,7.90
2022-11-29T08:57:52.039Z,7.90
2022-11-29T09:00:21.130Z,7.90
2022-11-29T09:02:48.784Z,7.90
2022-11-29T09:05:15.797Z,7.90
2022-11-29T09:07:42.920Z,7.90
2022-11-29T09:10:10.476Z,7.90
2022-11-29T09:12:38.845Z,7.90
2022-11-29T09:15:09.473Z,7.80
2022-11-29T09:17:36.204Z,7.90
2022-11-29T09:20:03.956Z,7.90
2022-11-29T09:22:31.028Z,8.00
2022-11-29T09:24:57.616Z,8.00
2022-11-29T09:27:24.206Z,7.90
2022-11-29T09:29:50.862Z,7.90
2022-11-29T09:32:17.507Z,8.00
2022-11-29T09:34:44.416Z,8.10
2022-11-29T09:37:11.471Z,8.10
2022-11-29T09:39:38.271Z,8.00
2022-11-29T09:42:31.271Z,8.00
2022-11-29T09:45:26.817Z,8.00
2022-11-29T09:48:23.339Z,8.00
2022-11-29T09:51:08.677Z,8.10
2022-11-29T09:53:52.152Z,8.00
2022-11-29T09:56:37.944Z,8.00
2022-11-29T09:59:12.421Z,8.00
2022-11-29T10:01:53.831Z,8.10
2022-11-29T10:04:27.335Z,8.10
2022-11-29T10:07:13.287Z,8.20
2022-11-29T10:10:08.679Z,8.20
2022-11-29T10:12:46.795Z,8.20
2022-11-29T10:15:29.447Z,8.20
2022-11-29T10:18:02.295Z,8.20
2022-11-29T10:20:41.394Z,8.30
2022-11-29T10:23:37.296Z,8.20
2022-11-29T10:26:08.000Z,8.10
2022-11-29T10:28:37.381Z,8.10
2022-11-29T10:31:33.181Z,8.20
2022-11-29T10:34:02.355Z,8.20
2022-11-29T10:36:34.651Z,8.20
2022-11-29T10:39:11.424Z,8.20
2022-11-29T10:41:41.219Z,8.30
2022-11-29T10:44:14.205Z,8.30
2022-11-29T10:46:41.320Z,8.40
2022-11-29T10:49:14.914Z,8.40
2022-11-29T10:51:41.733Z,8.50
2022-11-29T10:54:34.583Z,8.30
2022-11-29T10:57:02.059Z,8.40
2022-11-29T10:59:30.789Z,8.40
2022-11-29T11:01:58.235Z,8.40
2022-11-29T11:04:29.258Z,8.40
2022-11-29T11:07:02.243Z,8.40
2022-11-29T11:09:40.271Z,8.50
2022-11-29T11:12:19.951Z,8.50
2022-11-29T11:14:47.256Z,8.60
2022-11-29T11:17:26.386Z,8.60
2022-11-29T11:20:18.467Z,8.50
2022-11-29T11:22:54.961Z,8.40
2022-11-29T11:25:40.418Z,8.50
2022-11-29T11:28:26.256Z,8.60
2022-11-29T11:31:00.101Z,8.50
2022-11-29T11:33:36.743Z,8.50
2022-11-29T11:36:27.092Z,8.60
2022-11-29T11:39:12.495Z,8.70
2022-11-29T11:42:00.972Z,8.70
2022-11-29T11:44:49.238Z,8.70
2022-11-29T11:47:31.087Z,8.70
2022-11-29T11:50:00.474Z,8.70
2022-11-29T11:52:29.278Z,8.70
2022-11-29T11:54:59.925Z,8.70
2022-11-29T11:57:28.413Z,8.70
2022-11-29T12:00:00.746Z,8.80
2022-11-29T12:02:38.934Z,8.70
2022-11-29T12:05:15.529Z,8.70
2022-11-29T12:08:13.654Z,8.80
2022-11-29T12:10:41.005Z,8.80
2022-11-29T12:13:19.759Z,8.80
2022-11-29T12:15:49.637Z,8.80
2022-11-29T12:18:30.774Z,8.80
2022-11-29T12:21:08.681Z,8.80
2022-11-29T12:23:52.779Z,8.80
2022-11-29T12:26:56.856Z,8.80
2022-11-29T12:29:22.612Z,8.80
2022-11-29T12:32:26.697Z,8.80
2022-11-29T12:35:24.775Z,8.90
2022-11-29T12:38:06.957Z,8.90
2022-11-29T12:40:49.709Z,8.90
2022-11-29T12:43:38.209Z,8.90
2022-11-29T12:46:25.910Z,8.90
2022-11-29T12:49:17.401Z,8.90
2022-11-29T12:51:56.175Z,8.90
2022-11-29T12:54:41.328Z,9.00
2022-11-29T12:57:15.512Z,9.00
2022-11-29T13:00:04.546Z,9.00
2022-11-29T13:02:42.453Z,9.10
2022-11-29T13:05:27.835Z,9.00
2022-11-29T13:08:00.413Z,9.10
2022-11-29T13:10:54.938Z,9.10
2022-11-29T13:13:44.122Z,9.00
2022-11-29T13:19:36.148Z,9.00
2022-11-29T13:22:18.539Z,9.10
2022-11-29T13:24:49.558Z,9.10
2022-11-29T13:27:21.458Z,9.10
2022-11-29T13:29:48.701Z,9.20
2022-11-29T13:32:53.877Z,9.20
2022-11-29T13:35:35.408Z,9.10
2022-11-29T13:38:19.033Z,9.10
2022-11-29T13:40:56.153Z,9.20
2022-11-29T13:43:32.971Z,9.20
2022-11-29T13:46:19.661Z,9.30
2022-11-29T13:48:48.625Z,9.30
2022-11-29T13:51:33.151Z,9.20
2022-11-29T13:54:25.470Z,9.20
2022-11-29T13:57:03.978Z,9.20
2022-11-29T13:59:32.876Z,9.20
2022-11-29T14:01:59.788Z,9.20
2022-11-29T14:04:45.037Z,9.20
2022-11-29T14:07:16.332Z,9.20
2022-11-29T14:10:03.820Z,9.20
2022-11-29T14:12:49.254Z,9.20
2022-11-29T14:15:27.920Z,9.20
2022-11-29T14:17:58.935Z,9.10
2022-11-29T14:20:25.763Z,9.10
2022-11-29T14:23:04.870Z,9.10
2022-11-29T14:28:23.247Z,9.20
2022-11-29T14:31:01.511Z,9.20
2022-11-29T14:33:43.703Z,9.10
2022-11-29T14:36:17.650Z,9.10
2022-11-29T14:39:11.820Z,9.20
2022-11-29T14:41:52.270Z,9.20
2022-11-29T14:44:24.112Z,9.10
2022-11-29T14:47:07.129Z,9.10
2022-11-29T14:49:42.907Z,9.20
2022-11-29T14:52:15.718Z,9.20
2022-11-29T14:55:08.099Z,9.20
2022-11-29T14:57:50.086Z,9.20
2022-11-29T15:00:48.725Z,9.10
2022-11-29T15:03:30.466Z,9.10
2022-11-29T15:06:00.530Z,9.00
2022-11-29T15:08:35.537Z,9.00
2022-11-29T15:11:11.245Z,9.00
2022-11-29T15:13:48.526Z,9.00
2022-11-29T15:16:27.047Z,9.00
2022-11-29T15:18:59.443Z,9.00
2022-11-29T15:21:53.257Z,9.00
2022-11-29T15:24:25.002Z,9.00
2022-11-29T15:27:02.607Z,9.00
2022-11-29T15:29:30.495Z,8.90
2022-11-29T15:31:59.636Z,8.90
2022-11-29T15:34:32.546Z,8.90
2022-11-29T15:37:02.165Z,8.90
2022-11-29T15:39:30.870Z,8.90
2022-11-29T15:42:11.808Z,8.90
2022-11-29T15:44:45.930Z,8.90
2022-11-29T15:47:26.536Z,8.80
2022-11-29T15:49:54.254Z,8.80
2022-11-29T15:52:41.385Z,8.80
2022-11-29T15:55:12.680Z,8.80
2022-11-29T15:57:42.794Z,8.80
2022-11-29T16:00:20.311Z,8.70
2022-11-29T16:02:52.105Z,8.70
2022-11-29T16:05:23.375Z,8.70
2022-11-29T16:07:55.124Z,8.60
2022-11-29T16:10:49.270Z,8.60
2022-11-29T16:13:31.575Z,8.60
2022-11-29T16:16:10.571Z,8.60
2022-11-29T16:18:41.028Z,8.60
2022-11-29T16:21:21.604Z,8.60
2022-11-29T16:23:48.287Z,8.60
2022-11-29T16:26:19.184Z,8.60
2022-11-29T16:28:48.655Z,8.60
2022-11-29T16:31:20.569Z,8.60
2022-11-29T16:33:49.416Z,8.60
2022-11-29T16:36:22.214Z,8.60
2022-11-29T16:39:00.886Z,8.60
2022-11-29T16:41:33.531Z,8.60
2022-11-29T16:44:03.139Z,8.60
2022-11-29T16:46:32.375Z,8.60
2022-11-29T16:49:02.433Z,8.50
2022-11-29T16:51:43.768Z,8.50
2022-11-29T16:54:19.559Z,8.50
2022-11-29T16:56:46.412Z,8.40
2022-11-29T16:59:17.209Z,8.50
2022-11-29T17:01:53.878Z,8.50
2022-11-29T17:04:23.828Z,8.40
2022-11-29T17:06:51.980Z,8.40
2022-11-29T17:09:23.411Z,8.40
2022-11-29T17:11:50.104Z,8.40
2022-11-29T17:14:16.764Z,8.30
2022-11-29T17:16:43.518Z,8.30
2022-11-29T17:19:12.697Z,8.20
2022-11-29T17:21:39.533Z,8.30
2022-11-29T17:24:06.602Z,8.30
2022-11-29T17:26:33.230Z,8.30
2022-11-29T17:28:59.841Z,8.20
2022-11-29T17:31:26.749Z,8.20
2022-11-29T17:33:53.437Z,8.10
2022-11-29T17:36:21.123Z,8.00
2022-11-29T17:38:48.707Z,8.00
2022-11-29T17:41:18.186Z,8.00
2022-11-29T17:43:44.758Z,8.00
2022-11-29T17:46:17.472Z,8.00
2022-11-29T17:48:47.543Z,8.00
2022-11-29T17:51:43.798Z,7.90
2022-11-29T17:54:04.349Z,8.00
2022-11-29T17:56:31.386Z,8.00
2022-11-29T17:59:00.299Z,8.00
2022-11-29T18:01:32.631Z,8.00
2022-11-29T18:04:01.525Z,8.00
2022-11-29T18:06:33.414Z,8.00
2022-11-29T18:09:01.573Z,8.00
2022-11-29T18:11:46.993Z,8.00
2022-11-29T18:14:20.353Z,8.00
2022-11-29T18:16:47.267Z,7.90
2022-11-29T18:19:17.763Z,7.80
2022-11-29T18:21:44.892Z,7.90
2022-11-29T18:24:12.090Z,7.80
2022-11-29T18:26:39.940Z,7.80
2022-11-29T18:29:07.384Z,7.80
2022-11-29T18:31:36.688Z,7.80
2022-11-29T18:34:07.178Z,7.70
2022-11-29T18:36:44.812Z,7.70
2022-11-29T18:39:14.258Z,7.70
2022-11-29T18:41:45.937Z,7.70
2022-11-29T18:44:14.422Z,7.70
2022-11-29T18:46:43.107Z,7.70
2022-11-29T18:49:12.537Z,7.60
2022-11-29T18:51:40.038Z,7.60
2022-11-29T18:54:06.885Z,7.60
2022-11-29T18:56:35.853Z,7.60
2022-11-29T18:59:10.301Z,7.60
2022-11-29T19:01:41.105Z,7.60
2022-11-29T19:04:13.453Z,7.70
2022-11-29T19:06:40.873Z,7.60
2022-11-29T19:09:12.700Z,7.70
2022-11-29T19:11:40.289Z,7.60
2022-11-29T19:14:12.655Z,7.60
2022-11-29T19:16:42.879Z,7.60
2022-11-29T19:19:10.001Z,7.60
2022-11-29T19:21:36.909Z,7.70
2022-11-29T19:24:07.642Z,7.70
2022-11-29T19:26:34.672Z,7.60
2022-11-29T19:29:01.670Z,7.60
2022-11-29T19:31:28.690Z,7.70
2022-11-29T19:33:56.953Z,7.60
2022-11-29T19:36:26.516Z,7.60
2022-11-29T19:38:55.518Z,7.50
2022-11-29T19:41:28.904Z,7.60
2022-11-29T19:44:01.369Z,7.60
2022-11-29T19:46:30.636Z,7.50
2022-11-29T19:49:00.329Z,7.50
2022-11-29T19:51:28.510Z,7.50
2022-11-29T19:53:58.636Z,7.60
2022-11-29T19:56:26.135Z,7.50
2022-11-29T19:58:53.127Z,7.50
2022-11-29T20:01:23.014Z,7.40
2022-11-29T20:03:50.227Z,7.50
2022-11-29T20:06:18.166Z,7.40
2022-11-29T20:08:45.225Z,7.50
2022-11-29T20:11:20.796Z,7.50
2022-11-29T20:13:53.539Z,7.40
2022-11-29T20:16:20.480Z,7.40
2022-11-29T20:18:51.184Z,7.50
2022-11-29T20:21:19.595Z,7.50
2022-11-29T20:23:46.422Z,7.50
2022-11-29T20:26:17.430Z,7.50
2022-11-29T20:28:44.960Z,7.50
2022-11-29T20:31:17.437Z,7.50
2022-11-29T20:33:45.891Z,7.50
2022-11-29T20:36:49.493Z,7.40
2022-11-29T20:39:42.538Z,7.50
2022-11-29T20:42:24.452Z,7.40
2022-11-29T20:44:59.487Z,7.50
2022-11-29T20:47:51.882Z,7.50
2022-11-29T20:50:27.191Z,7.40
2022-11-29T20:52:56.865Z,7.40
2022-11-29T20:55:23.606Z,7.40
2022-11-29T20:57:50.403Z,7.40
2022-11-29T21:00:18.099Z,7.40
2022-11-29T21:02:44.744Z,7.40
2022-11-29T21:05:11.576Z,7.40
2022-11-29T21:07:38.349Z,7.40
2022-11-29T21:10:05.667Z,7.40
2022-11-29T21:12:32.816Z,7.50
2022-11-29T21:14:59.724Z,7.50
2022-11-29T21:17:31.886Z,7.50
2022-11-29T21:20:00.635Z,7.50
2022-11-29T21:22:48.996Z,7.50
2022-11-29T21:25:37.637Z,7.50
2022-11-29T21:28:10.703Z,7.50
2022-11-29T21:30:37.642Z,7.50
2022-11-29T21:33:04.731Z,7.50
2022-11-29T21:35:31.489Z,7.50
2022-11-29T21:38:00.637Z,7.50
2022-11-29T21:40:28.111Z,7.50
2022-11-29T21:42:54.820Z,7.50
2022-11-29T21:45:21.426Z,7.50
2022-11-29T21:47:48.085Z,7.50
2022-11-29T21:50:14.743Z,7.50
2022-11-29T21:52:41.672Z,7.40
2022-11-29T21:55:08.735Z,7.50
2022-11-29T21:57:36.132Z,7.50
2022-11-29T22:00:03.908Z,7.50
2022-11-29T22:02:30.741Z,7.50
2022-11-29T22:04:57.478Z,7.50
2022-11-29T22:07:24.113Z,7.50
2022-11-29T22:09:50.834Z,7.50
2022-11-29T22:12:33.826Z,7.50
2022-11-29T22:15:01.436Z,7.50
2022-11-29T22:17:28.035Z,7.50
2022-11-29T22:19:54.672Z,7.50
2022-11-29T22:22:21.431Z,7.50
2022-11-29T22:24:48.272Z,7.50
2022-11-29T22:27:17.614Z,7.50
2022-11-29T22:29:44.622Z,7.50
2022-11-29T22:32:11.283Z,7.50
2022-11-29T22:34:38.109Z,7.50
2022-11-29T22:37:04.868Z,7.50
2022-11-29T22:39:31.472Z,7.60
2022-11-29T22:41:58.097Z,7.60
2022-11-29T22:44:24.867Z,7.60
2022-11-29T22:46:51.795Z,7.60
2022-11-29T22:49:18.564Z,7.60
2022-11-29T22:51:45.192Z,7.70
2022-11-29T22:54:15.201Z,7.70
2022-11-29T22:56:43.238Z,7.70
2022-11-29T22:59:10.518Z,7.70
2022-11-29T23:01:39.669Z,7.70
2022-11-29T23:04:08.259Z,7.70
2022-11-29T23:06:37.385Z,7.70
2022-11-29T23:09:07.722Z,7.70
2022-11-29T23:11:34.370Z,7.70
2022-11-29T23:14:01.036Z,7.70
2022-11-29T23:16:29.874Z,7.70
2022-11-29T23:19:00.728Z,7.70
2022-11-29T23:21:33.001Z,7.70
2022-11-29T23:24:00.935Z,7.70
2022-11-29T23:26:36.410Z,7.70
2022-11-29T23:29:04.185Z,7.70
2022-11-29T23:31:31.604Z,7.70
2022-11-29T23:33:58.274Z,7.70
2022-11-29T23:36:25.088Z,7.70
2022-11-29T23:38:51.746Z,7.70
2022-11-29T23:41:18.394Z,7.70
2022-11-29T23:43:45.070Z,7.70
2022-11-29T23:46:20.354Z,7.80
2022-11-29T23:48:47.089Z,7.80
2022-11-29T23:51:14.385Z,7.70
2022-11-29T23:53:42.175Z,7.70
2022-11-29T23:56:13.296Z,7.70
2022-11-29T23:58:40.222Z,7.70
